Chippewa Falls, WI (54729)

4:46 AM CDT on September 03, 2015 (GMT -0500)
Lake Wissota | | Change Station
CLOSE
Current Station
Personal Weather Station
Location: Chippewa Falls, WI
Elevation: 925 ft
Nearby Weather Stations

Elev 925 ft 44.98 °N, 91.34 °W | Updated 2 seconds ago

Overcast
Overcast
67.6 °F
Feels Like 67.6 °F
N
1.1
Wind Variable Wind from NW
Gusts 1.1 mph

Today
High -- | Low -- °F
--% Chance of Precip.
Yesterday
High -- | Low -- °F
Precip. -- in
6:29 AM 7:39 PM
Waning Gibbous, 72% visible
Pressure 29.91 in
Visibility 7.0 miles
Clouds Mostly Cloudy 400 ft
Overcast 2900 ft
Dew Point 67 °F
Humidity 99%
Rainfall 0.00 in
Snow Depth Not available.
UV 0 out of 12
Pollen 10.20 out of 12
Air Quality Not available.
Flu Activity Not available.
SPECI KEAU 030924Z AUTO 05004KT 7SM BKN004 OVC029 20/19 A2991 RMK AO2 T02000194
Pressure 29.91 in
Visibility 7.0 miles
Clouds Mostly Cloudy 400 ft
Overcast 2900 ft
Dew Point 67 °F
Humidity 99%
Rainfall 0.00 in
Snow Depth Not available.
UV 0 out of 12
Pollen 10.20 out of 12
Air Quality Not available.
Flu Activity Not available.
SPECI KEAU 030924Z AUTO 05004KT 7SM BKN004 OVC029 20/19 A2991 RMK AO2 T02000194

10-Day Weather Forecast

×

Almanac

Astronomy

Sep. 03, 2015 Rise Set
Actual Time
Civil Twilight
Nautical Twilight
Astronomical Twilight
Moon
Length of Visible Light
Length of Day
Tomorrow will be .
, % of the Moon is Illuminated

Today's Extremes

State Highs State Lows

Community

WunderPhotos

Upload Photos

1,851,923 photos uploaded!

WunderBlogs® & News

Nearby

Air Quality

  Air Quality AQ Index Pollutant
Not available.

Snow Depth

Station Depth Elevation

Earthquake Activity

City Distance Mag. Time & Date
Minimum magnitude displayed is 2.5.

Coastal Water Temperatures

Place Temperature

Stations

Nearby Weather Stations

Station Location Temp. Windchill Dew Point Humidity Wind Precip. Elev Updated Type